Time;durP1;ratioP1;P1;durP2;ratioP2;P2;SDS_P1;SDS_P2;PMS_P1;PMS_P2;Temp;Humidity;BMP_temperature;BMP_pressure;BME280_temperature;BME280_humidity;BME280_pressure;Samples;Min_cycle;Max_cycle;Signal;HPM_P1;HPM_P2
2023/08/17 00:00:01;;;;;;;1.38;1.27;;;;;;;29.69;47.57;98789.97;2084767;28;20958;-53
2023/08/17 00:01:02;;;;;;;1.95;1.58;;;;;;;29.68;47.51;98791.88;2085278;28;20136;-54
2023/08/17 00:02:04;;;;;;;1.65;1.55;;;;;;;29.68;47.64;98796.53;2085068;28;21149;-51
2023/08/17 00:03:05;;;;;;;1.40;1.30;;;;;;;29.68;47.72;98799.25;2084497;28;20056;-53
2023/08/17 00:04:06;;;;;;;2.08;1.90;;;;;;;29.67;47.72;98792.97;2083908;28;20586;-53
2023/08/17 00:05:08;;;;;;;2.17;1.98;;;;;;;29.68;47.39;98791.06;2081317;28;20269;-53
2023/08/17 00:06:09;;;;;;;1.73;1.63;;;;;;;29.68;47.66;98793.78;2084613;28;20254;-52
2023/08/17 00:07:11;;;;;;;1.75;1.65;;;;;;;29.70;47.59;98789.69;2083709;28;20276;-54
2023/08/17 00:08:13;;;;;;;1.90;1.80;;;;;;;29.70;47.38;98791.59;2081302;28;20049;-52
2023/08/17 00:09:15;;;;;;;1.70;1.60;;;;;;;29.68;47.83;98791.06;2083207;28;20148;-54
2023/08/17 00:10:16;;;;;;;1.35;1.25;;;;;;;29.67;47.73;98786.66;2084120;28;20045;-54
2023/08/17 00:11:18;;;;;;;1.40;1.30;;;;;;;29.67;47.74;98790.25;2083582;28;20388;-50
2023/08/17 00:12:18;;;;;;;1.42;1.20;;;;;;;29.67;47.53;98787.50;2085550;28;20052;-51
2023/08/17 00:13:20;;;;;;;1.60;1.50;;;;;;;29.68;47.61;98786.41;2085672;28;20120;-50
2023/08/17 00:14:21;;;;;;;1.88;1.40;;;;;;;29.68;47.63;98799.25;2084768;28;20046;-50
2023/08/17 00:15:23;;;;;;;1.98;1.83;;;;;;;29.67;47.63;98792.13;2085439;28;20041;-49
2023/08/17 00:16:27;;;;;;;1.45;1.33;;;;;;;29.67;47.81;98792.97;2083848;28;20068;-49
2023/08/17 00:17:29;;;;;;;1.90;1.52;;;;;;;29.67;47.63;98800.34;2084570;28;20507;-49
2023/08/17 00:18:30;;;;;;;1.60;1.50;;;;;;;29.67;47.76;98803.91;2082176;28;20149;-53
2023/08/17 00:19:32;;;;;;;1.90;1.80;;;;;;;29.68;47.75;98800.06;2084703;28;20477;-49
2023/08/17 00:20:33;;;;;;;1.65;1.55;;;;;;;29.67;47.74;98800.34;2083553;28;20041;-53
2023/08/17 00:21:35;;;;;;;2.47;1.70;;;;;;;29.68;47.60;98802.81;2085273;28;20049;-60
2023/08/17 00:22:36;;;;;;;1.77;1.60;;;;;;;29.67;47.79;98798.44;2082969;28;20488;-52
2023/08/17 00:23:39;;;;;;;1.85;1.75;;;;;;;29.68;47.87;98797.34;2082751;28;20052;-53
2023/08/17 00:24:41;;;;;;;1.45;1.35;;;;;;;29.66;47.55;98795.97;2081739;28;20072;-53
2023/08/17 00:25:43;;;;;;;1.80;1.70;;;;;;;29.66;47.61;98802.25;2083065;28;20076;-49
2023/08/17 00:26:44;;;;;;;1.83;1.73;;;;;;;29.66;47.73;98796.78;2076798;28;20045;-50
2023/08/17 00:27:46;;;;;;;2.00;1.55;;;;;;;29.65;47.74;98800.63;2085708;28;20091;-52
2023/08/17 00:28:47;;;;;;;2.25;2.05;;;;;;;29.67;47.38;98795.72;2083042;28;20421;-53
2023/08/17 00:29:48;;;;;;;1.90;1.80;;;;;;;29.67;47.71;98797.59;2085529;28;20082;-50
2023/08/17 00:30:50;;;;;;;1.65;1.55;;;;;;;29.63;47.84;98797.34;2085934;28;20077;-50
2023/08/17 00:31:52;;;;;;;1.40;1.30;;;;;;;29.65;47.62;98799.81;2083933;28;20046;-54
2023/08/17 00:32:54;;;;;;;1.50;1.40;;;;;;;29.64;47.76;98792.69;2086402;28;20049;-53
2023/08/17 00:33:54;;;;;;;2.25;2.05;;;;;;;29.64;47.80;98793.50;2086071;28;20053;-53
2023/08/17 00:34:56;;;;;;;1.60;1.50;;;;;;;29.66;47.97;98785.03;2085745;28;20563;-53
2023/08/17 00:35:57;;;;;;;1.50;1.40;;;;;;;29.67;47.52;98787.50;2085856;28;20072;-50
2023/08/17 00:36:59;;;;;;;1.27;1.17;;;;;;;29.64;47.59;98785.28;2084819;28;20065;-49
2023/08/17 00:38:00;;;;;;;1.65;1.55;;;;;;;29.65;47.63;98788.88;2083723;28;20060;-51
2023/08/17 00:39:03;;;;;;;2.20;1.58;;;;;;;29.66;47.57;98793.25;2085329;28;20303;-49
2023/08/17 00:40:05;;;;;;;1.50;1.40;;;;;;;29.64;47.66;98787.22;2082065;28;20096;-49
2023/08/17 00:41:07;;;;;;;1.63;1.33;;;;;;;29.64;47.68;98790.75;2082458;28;20045;-51
2023/08/17 00:42:08;;;;;;;1.70;1.60;;;;;;;29.64;47.75;98787.22;2080778;28;20050;-52
2023/08/17 00:43:10;;;;;;;1.50;1.40;;;;;;;29.64;47.42;98792.69;2083888;28;20059;-49
2023/08/17 00:44:11;;;;;;;1.50;1.40;;;;;;;29.63;47.91;98783.66;2080828;28;20053;-52
2023/08/17 00:45:13;;;;;;;1.67;1.58;;;;;;;29.64;47.67;98788.03;2083710;28;20206;-53
2023/08/17 00:46:14;;;;;;;1.40;1.30;;;;;;;29.64;47.76;98788.03;2084307;28;20069;-49
2023/08/17 00:47:16;;;;;;;2.55;1.50;;;;;;;29.63;48.10;98786.41;2084378;28;20056;-49
2023/08/17 00:48:16;;;;;;;1.77;1.67;;;;;;;29.63;47.71;98786.41;2082513;28;20092;-50
2023/08/17 00:49:18;;;;;;;1.90;1.67;;;;;;;29.62;48.03;98784.75;2085300;28;20057;-49
2023/08/17 00:50:20;;;;;;;1.55;1.45;;;;;;;29.61;47.79;98783.09;2083763;28;20052;-52
2023/08/17 00:51:23;;;;;;;2.05;1.90;;;;;;;29.62;47.89;98780.09;2082301;28;20045;-52
2023/08/17 00:52:24;;;;;;;1.77;1.67;;;;;;;29.62;48.05;98784.75;2084594;28;20128;-49
2023/08/17 00:53:27;;;;;;;1.83;1.73;;;;;;;29.62;47.75;98779.28;2083392;28;20059;-53
2023/08/17 00:54:30;;;;;;;1.77;1.67;;;;;;;29.61;47.73;98783.94;2081334;28;20084;-51
2023/08/17 00:55:31;;;;;;;1.80;1.63;;;;;;;29.59;47.92;98780.63;2081087;28;20045;-50
2023/08/17 00:56:32;;;;;;;1.50;1.40;;;;;;;29.60;47.69;98774.06;2084753;28;20042;-53
2023/08/17 00:57:35;;;;;;;2.05;1.58;;;;;;;29.61;47.77;98783.09;2082845;28;20047;-50
2023/08/17 00:58:36;;;;;;;1.75;1.65;;;;;;;29.61;47.77;98780.34;2082488;28;20136;-49
2023/08/17 00:59:37;;;;;;;2.25;1.40;;;;;;;29.60;47.86;98775.97;2083982;28;20064;-50
2023/08/17 01:00:39;;;;;;;2.13;1.55;;;;;;;29.62;47.87;98773.81;2085015;28;20147;-49
2023/08/17 01:01:41;;;;;;;1.77;1.48;;;;;;;29.61;47.73;98775.72;2085728;28;20057;-49
2023/08/17 01:02:42;;;;;;;1.42;1.33;;;;;;;29.60;47.88;98770.53;2083916;28;20064;-50
2023/08/17 01:03:44;;;;;;;1.48;1.38;;;;;;;29.61;47.75;98774.88;2080796;28;20072;-53
2023/08/17 01:04:46;;;;;;;2.10;1.90;;;;;;;29.61;47.50;98770.25;2082984;28;20200;-52
2023/08/17 01:05:48;;;;;;;1.50;1.40;;;;;;;29.61;47.70;98775.72;2082056;28;20053;-49
2023/08/17 01:06:49;;;;;;;1.63;1.50;;;;;;;29.59;47.87;98769.69;2083545;28;20273;-49
2023/08/17 01:07:51;;;;;;;1.70;1.60;;;;;;;29.61;47.90;98772.16;2083443;28;20053;-53
2023/08/17 01:08:52;;;;;;;2.33;1.50;;;;;;;29.61;48.06;98769.41;2082794;28;20077;-53
2023/08/17 01:09:55;;;;;;;2.15;1.52;;;;;;;29.61;47.75;98770.25;2084079;28;20045;-50
2023/08/17 01:11:02;;;;;;;1.70;1.60;;;;;;;29.61;47.66;98761.22;2083065;28;20049;-53
2023/08/17 01:12:15;;;;;;;1.63;1.50;;;;;;;29.57;47.68;98760.94;2080825;28;20049;-49
2023/08/17 01:13:21;;;;;;;1.55;1.45;;;;;;;29.57;47.95;98762.88;2082527;28;20426;-49
2023/08/17 01:14:28;;;;;;;1.63;1.52;;;;;;;29.58;48.00;98765.31;2083147;28;20041;-50
2023/08/17 01:15:35;;;;;;;1.73;1.63;;;;;;;29.57;47.78;98752.75;2084707;28;20069;-53
2023/08/17 01:16:43;;;;;;;1.23;1.15;;;;;;;29.58;47.77;98757.13;2085049;28;20044;-52
2023/08/17 01:17:52;;;;;;;1.42;1.33;;;;;;;29.56;47.73;98759.31;2087941;28;20419;-51
2023/08/17 01:18:55;;;;;;;2.38;1.48;;;;;;;29.56;47.89;98753.84;2084844;28;20096;-51
2023/08/17 01:19:56;;;;;;;1.70;1.58;;;;;;;29.55;47.81;98749.47;2086523;28;20056;-52
2023/08/17 01:20:58;;;;;;;2.90;1.50;;;;;;;29.58;47.93;98748.09;2084770;28;20064;-50
2023/08/17 01:22:03;;;;;;;1.75;1.65;;;;;;;29.59;47.64;98749.75;2085679;28;20048;-53
2023/08/17 01:23:08;;;;;;;2.13;1.95;;;;;;;29.58;47.74;98748.91;2084714;28;20051;-51
2023/08/17 01:24:10;;;;;;;1.63;1.52;;;;;;;29.57;47.70;98744.56;2083511;28;20075;-51
2023/08/17 01:25:12;;;;;;;1.58;1.48;;;;;;;29.58;47.91;98748.09;2083518;28;20045;-49
2023/08/17 01:26:15;;;;;;;2.97;1.67;;;;;;;29.57;48.04;98758.22;2085110;28;20478;-49
2023/08/17 01:27:17;;;;;;;1.35;1.25;;;;;;;29.57;47.90;98754.66;2086606;28;20083;-53
2023/08/17 01:28:18;;;;;;;1.77;1.50;;;;;;;29.58;47.94;98754.38;2084596;28;20049;-49
2023/08/17 01:29:20;;;;;;;1.65;1.38;;;;;;;29.58;47.99;98748.91;2086246;28;20135;-50
2023/08/17 01:30:21;;;;;;;1.83;1.73;;;;;;;29.58;47.84;98757.13;2086033;28;20702;-50
2023/08/17 01:31:31;;;;;;;1.48;1.38;;;;;;;29.59;47.71;98756.03;2084567;28;20943;-53
2023/08/17 01:32:37;;;;;;;1.30;1.20;;;;;;;29.57;47.89;98760.94;2085660;28;20041;-52
2023/08/17 01:33:45;;;;;;;1.40;1.30;;;;;;;29.57;47.58;98760.13;2084492;28;20055;-54
2023/08/17 01:34:54;;;;;;;1.30;1.20;;;;;;;29.57;47.75;98757.41;2085152;28;20052;-49
2023/08/17 01:36:05;;;;;;;2.00;1.80;;;;;;;29.56;47.55;98758.47;2086620;28;20107;-49
2023/08/17 01:37:09;;;;;;;1.77;1.67;;;;;;;29.54;47.88;98761.50;2086365;28;20044;-53
2023/08/17 01:38:15;;;;;;;1.75;1.60;;;;;;;29.56;48.00;98764.78;2084952;28;20071;-52
2023/08/17 01:39:17;;;;;;;1.60;1.50;;;;;;;29.55;47.75;98767.78;2082068;28;20052;-50
2023/08/17 01:40:20;;;;;;;1.63;1.50;;;;;;;29.57;47.75;98760.94;2084921;28;20049;-52
2023/08/17 01:41:23;;;;;;;1.45;1.35;;;;;;;29.57;47.72;98769.16;2083516;28;20561;-53
2023/08/17 01:42:26;;;;;;;1.85;1.23;;;;;;;29.56;47.78;98763.94;2080752;28;20053;-53
2023/08/17 01:43:28;;;;;;;1.55;1.40;;;;;;;29.59;47.58;98766.16;2081400;28;20087;-54
2023/08/17 01:44:30;;;;;;;1.35;1.25;;;;;;;29.57;47.63;98769.16;2081117;28;20045;-53
2023/08/17 01:45:31;;;;;;;1.80;1.67;;;;;;;29.58;47.64;98770.78;2082298;28;20049;-53
2023/08/17 01:46:34;;;;;;;1.52;1.42;;;;;;;29.56;47.81;98767.53;2083872;28;20053;-49
2023/08/17 01:47:35;;;;;;;1.63;1.52;;;;;;;29.57;47.92;98762.88;2084940;28;20232;-52
2023/08/17 01:48:37;;;;;;;1.67;1.58;;;;;;;29.57;47.85;98760.13;2084152;28;20063;-50
2023/08/17 01:49:38;;;;;;;1.60;1.50;;;;;;;29.56;47.80;98759.31;2083952;28;20499;-49
2023/08/17 01:50:40;;;;;;;1.90;1.70;;;;;;;29.57;47.73;98763.69;2085330;28;20049;-52
2023/08/17 01:51:40;;;;;;;1.75;1.60;;;;;;;29.55;48.05;98752.19;2085063;28;20484;-49
2023/08/17 01:52:42;;;;;;;1.60;1.50;;;;;;;29.57;47.78;98754.66;2085213;28;20040;-50
2023/08/17 01:53:45;;;;;;;2.53;1.83;;;;;;;29.57;48.06;98754.66;2085713;28;20041;-51
2023/08/17 01:54:46;;;;;;;2.75;1.67;;;;;;;29.57;47.52;98760.13;2085858;28;20480;-53
2023/08/17 01:55:47;;;;;;;1.83;1.33;;;;;;;29.56;47.85;98742.91;2085286;28;20060;-51
2023/08/17 01:56:49;;;;;;;1.50;1.40;;;;;;;29.55;47.88;98751.38;2085241;28;20083;-50
2023/08/17 01:57:50;;;;;;;1.02;1.02;;;;;;;29.56;47.76;98753.00;2086839;28;20397;-50
2023/08/17 01:58:52;;;;;;;1.77;1.67;;;;;;;29.55;47.66;98749.47;2084298;28;20056;-51
2023/08/17 01:59:52;;;;;;;1.55;1.45;;;;;;;29.55;47.62;98748.66;2085489;28;20048;-54
2023/08/17 02:00:54;;;;;;;1.58;1.40;;;;;;;29.56;47.87;98753.00;2085868;28;20049;-52
2023/08/17 02:01:55;;;;;;;1.65;1.38;;;;;;;29.55;47.60;98751.38;2081502;28;20464;-49
2023/08/17 02:02:57;;;;;;;1.65;1.55;;;;;;;29.56;47.87;98747.53;2085224;28;20045;-51
2023/08/17 02:04:01;;;;;;;2.15;1.48;;;;;;;29.55;48.00;98745.91;2083240;28;20065;-50
2023/08/17 02:05:04;;;;;;;1.77;1.67;;;;;;;29.54;47.77;98747.84;2086245;28;20081;-51
2023/08/17 02:06:04;;;;;;;1.67;1.58;;;;;;;29.54;47.80;98742.38;2084812;28;20053;-50
2023/08/17 02:07:06;;;;;;;1.50;1.40;;;;;;;29.54;47.81;98739.63;2084447;28;20132;-49
2023/08/17 02:08:07;;;;;;;1.52;1.42;;;;;;;29.55;47.76;98749.47;2084900;28;20057;-54
2023/08/17 02:09:10;;;;;;;1.45;1.20;;;;;;;29.54;47.66;98745.09;2085143;28;20052;-53
2023/08/17 02:10:11;;;;;;;1.23;1.13;;;;;;;29.54;47.67;98750.56;2082882;28;20060;-50
2023/08/17 02:11:13;;;;;;;1.73;1.63;;;;;;;29.53;47.83;98751.66;2086389;28;20139;-53
2023/08/17 02:12:14;;;;;;;1.35;1.25;;;;;;;29.55;48.08;98754.13;2085656;28;20052;-49
2023/08/17 02:13:16;;;;;;;1.40;1.30;;;;;;;29.54;47.75;98747.84;2084693;28;20503;-49
2023/08/17 02:14:17;;;;;;;1.85;1.60;;;;;;;29.55;47.79;98749.47;2087833;28;20048;-53
2023/08/17 02:15:18;;;;;;;1.52;1.40;;;;;;;29.55;47.83;98748.66;2083049;28;20434;-51
2023/08/17 02:16:19;;;;;;;1.48;1.38;;;;;;;29.54;47.48;98753.31;2086147;28;20064;-49
2023/08/17 02:17:22;;;;;;;1.80;1.70;;;;;;;29.55;47.69;98759.59;2085705;28;20053;-51
2023/08/17 02:18:23;;;;;;;1.58;1.48;;;;;;;29.54;47.91;98755.22;2084899;28;20092;-53
2023/08/17 02:19:25;;;;;;;1.55;1.45;;;;;;;29.53;47.74;98759.88;2082818;28;20486;-50
2023/08/17 02:20:25;;;;;;;1.80;1.70;;;;;;;29.53;47.50;98764.50;2083106;28;20049;-49
2023/08/17 02:21:27;;;;;;;1.40;1.30;;;;;;;29.52;47.81;98763.69;2084031;28;20048;-52
2023/08/17 02:22:28;;;;;;;1.48;1.38;;;;;;;29.53;47.68;98759.88;2085462;28;20524;-50
2023/08/17 02:23:30;;;;;;;1.42;1.33;;;;;;;29.54;47.61;98761.50;2084820;28;20132;-51
2023/08/17 02:24:32;;;;;;;1.58;1.30;;;;;;;29.53;47.98;98762.59;2082814;28;20072;-52
2023/08/17 02:25:35;;;;;;;2.15;1.67;;;;;;;29.53;47.89;98759.03;2085213;28;20045;-54
2023/08/17 02:26:38;;;;;;;1.83;1.73;;;;;;;29.53;47.74;98759.88;2084901;28;20052;-49
2023/08/17 02:27:38;;;;;;;1.60;1.50;;;;;;;29.54;47.80;98763.41;2084925;28;20053;-50
2023/08/17 02:28:40;;;;;;;1.42;1.33;;;;;;;29.53;47.63;98757.13;2086383;28;20239;-50
2023/08/17 02:29:41;;;;;;;1.23;1.13;;;;;;;29.53;48.02;98759.88;2083893;28;20152;-51
2023/08/17 02:30:44;;;;;;;1.88;1.63;;;;;;;29.53;47.77;98761.75;2085188;28;20213;-50
2023/08/17 02:31:45;;;;;;;1.52;1.42;;;;;;;29.53;47.76;98765.34;2086032;28;20041;-51
2023/08/17 02:32:47;;;;;;;2.30;1.50;;;;;;;29.51;47.89;98758.50;2084794;28;20046;-49
2023/08/17 02:33:48;;;;;;;1.60;1.50;;;;;;;29.51;47.68;98759.31;2085025;28;20569;-49
2023/08/17 02:34:50;;;;;;;1.60;1.50;;;;;;;29.52;48.07;98763.69;2084537;28;20269;-49
2023/08/17 02:35:51;;;;;;;1.45;1.35;;;;;;;29.52;47.75;98751.94;2083157;28;20049;-51
2023/08/17 02:36:53;;;;;;;1.23;1.15;;;;;;;29.52;47.81;98754.66;2084680;28;20571;-51
2023/08/17 02:37:54;;;;;;;1.73;1.40;;;;;;;29.52;47.88;98757.41;2085503;28;21647;-53
2023/08/17 02:38:56;;;;;;;1.45;1.35;;;;;;;29.52;47.69;98752.75;2084355;28;20104;-49
2023/08/17 02:39:58;;;;;;;1.65;1.55;;;;;;;29.52;47.92;98746.47;2084012;28;20052;-49
2023/08/17 02:41:00;;;;;;;1.77;1.65;;;;;;;29.50;47.67;98760.38;2080928;28;20045;-49
2023/08/17 02:42:01;;;;;;;1.48;1.38;;;;;;;29.52;47.69;98751.94;2085378;28;20052;-50
2023/08/17 02:43:02;;;;;;;1.42;1.33;;;;;;;29.51;47.85;98750.31;2084137;28;20045;-52
2023/08/17 02:44:04;;;;;;;1.77;1.67;;;;;;;29.50;47.68;98746.72;2081865;28;20318;-51
2023/08/17 02:45:06;;;;;;;1.67;1.58;;;;;;;29.51;47.93;98751.13;2086627;28;20056;-50
2023/08/17 02:46:07;;;;;;;1.35;1.27;;;;;;;29.50;47.85;98749.47;2084030;28;20150;-50
2023/08/17 02:47:09;;;;;;;2.10;1.90;;;;;;;29.50;47.82;98744.00;2086538;28;20360;-52
2023/08/17 02:48:10;;;;;;;1.85;1.75;;;;;;;29.50;47.63;98744.00;2085715;28;20515;-50
2023/08/17 02:49:12;;;;;;;1.23;1.13;;;;;;;29.50;47.80;98749.47;2083262;28;20048;-51
2023/08/17 02:50:13;;;;;;;1.88;1.25;;;;;;;29.49;47.76;98742.38;2083178;28;20049;-50
2023/08/17 02:51:15;;;;;;;1.92;1.80;;;;;;;29.49;47.63;98739.63;2085415;28;21087;-51
2023/08/17 02:52:15;;;;;;;1.23;1.20;;;;;;;29.51;47.88;98742.09;2084719;28;20041;-53
2023/08/17 02:53:17;;;;;;;1.40;1.33;;;;;;;29.50;47.62;98737.72;2084864;28;20171;-53
2023/08/17 02:54:18;;;;;;;1.55;1.45;;;;;;;29.50;47.75;98737.72;2085578;28;20052;-52
2023/08/17 02:55:21;;;;;;;1.48;1.38;;;;;;;29.50;47.71;98743.19;2083705;28;20067;-49
2023/08/17 02:56:22;;;;;;;1.63;1.52;;;;;;;29.50;47.94;98743.19;2084734;28;20048;-49
2023/08/17 02:57:25;;;;;;;1.50;1.23;;;;;;;29.49;47.86;98739.63;2083171;28;20041;-50
2023/08/17 02:58:26;;;;;;;2.10;1.90;;;;;;;29.49;48.06;98739.63;2083531;28;20068;-52
2023/08/17 02:59:28;;;;;;;1.50;1.40;;;;;;;29.50;47.79;98737.72;2084317;28;20063;-53
2023/08/17 03:00:29;;;;;;;1.50;1.40;;;;;;;29.49;47.70;98738.81;2085419;28;20052;-53
2023/08/17 03:01:31;;;;;;;1.60;1.50;;;;;;;29.49;48.04;98742.38;2084314;28;20507;-50
2023/08/17 03:02:31;;;;;;;1.30;1.20;;;;;;;29.50;47.61;98741.25;2083891;28;20071;-50
2023/08/17 03:03:33;;;;;;;1.73;1.45;;;;;;;29.49;47.85;98742.38;2083840;28;20048;-49
2023/08/17 03:04:34;;;;;;;1.58;1.48;;;;;;;29.49;47.81;98736.91;2085412;28;20049;-58
2023/08/17 03:05:36;;;;;;;1.60;1.50;;;;;;;29.49;47.71;98741.53;2081667;28;20132;-53
2023/08/17 03:06:36;;;;;;;1.40;1.30;;;;;;;29.48;47.71;98735.28;2083778;28;20064;-51
2023/08/17 03:07:38;;;;;;;1.42;1.33;;;;;;;29.49;48.04;98739.63;2084694;28;20041;-51
2023/08/17 03:08:39;;;;;;;1.60;1.30;;;;;;;29.48;48.02;98738.00;2086638;28;20061;-54
2023/08/17 03:09:41;;;;;;;1.70;1.60;;;;;;;29.48;47.73;98738.00;2085829;28;20151;-53
2023/08/17 03:10:43;;;;;;;1.55;1.45;;;;;;;29.48;48.06;98739.91;2084744;28;20057;-54
2023/08/17 03:11:45;;;;;;;1.60;1.50;;;;;;;29.48;47.85;98740.72;2084665;28;20049;-52
2023/08/17 03:12:46;;;;;;;1.42;1.33;;;;;;;29.48;47.93;98740.72;2085255;28;20491;-49
2023/08/17 03:13:48;;;;;;;1.70;1.60;;;;;;;29.48;47.91;98742.66;2085217;28;20087;-50
2023/08/17 03:14:49;;;;;;;1.70;1.60;;;;;;;29.49;47.84;98747.00;2084284;28;20083;-50
2023/08/17 03:15:51;;;;;;;1.58;1.45;;;;;;;29.47;47.97;98735.53;2085104;28;20499;-50
2023/08/17 03:16:51;;;;;;;1.50;1.40;;;;;;;29.48;47.76;98740.72;2086116;28;20041;-53
2023/08/17 03:17:53;;;;;;;1.27;1.17;;;;;;;29.46;47.90;98731.97;2082230;28;20061;-50
2023/08/17 03:18:54;;;;;;;1.48;1.38;;;;;;;29.47;47.91;98736.34;2080610;28;20088;-54
2023/08/17 03:19:59;;;;;;;2.13;1.40;;;;;;;29.47;47.76;98732.78;2084661;28;20227;-50
2023/08/17 03:20:59;;;;;;;1.55;1.45;;;;;;;29.46;47.59;98731.97;2084485;28;20041;-53
2023/08/17 03:22:01;;;;;;;2.72;1.63;;;;;;;29.48;48.03;98729.00;2083545;28;20069;-50
2023/08/17 03:23:05;;;;;;;1.30;1.20;;;;;;;29.48;47.76;98729.81;2082575;28;20065;-49
2023/08/17 03:24:08;;;;;;;1.83;1.73;;;;;;;29.46;47.70;98734.72;2084738;28;20075;-53
2023/08/17 03:25:09;;;;;;;1.35;1.25;;;;;;;29.47;47.96;98727.34;2084711;28;20140;-52
2023/08/17 03:26:12;;;;;;;1.88;1.58;;;;;;;29.45;47.61;98730.34;2085452;28;20056;-50
2023/08/17 03:27:13;;;;;;;1.58;1.42;;;;;;;29.45;48.02;98734.97;2084925;28;20422;-53
2023/08/17 03:28:15;;;;;;;1.88;1.60;;;;;;;29.45;47.74;98727.63;2084997;28;20049;-52
2023/08/17 03:29:15;;;;;;;1.10;1.10;;;;;;;29.46;47.86;98731.16;2085624;28;20076;-52
2023/08/17 03:30:17;;;;;;;1.70;1.60;;;;;;;29.46;48.04;98723.78;2085461;28;20060;-52
2023/08/17 03:31:20;;;;;;;1.70;1.60;;;;;;;29.46;47.80;98729.25;2082214;28;20403;-54
2023/08/17 03:32:22;;;;;;;1.75;1.27;;;;;;;29.45;47.74;98727.63;2082073;28;20041;-49
2023/08/17 03:33:23;;;;;;;1.83;1.73;;;;;;;29.45;47.76;98722.16;2083388;28;20037;-50
2023/08/17 03:34:25;;;;;;;1.42;1.33;;;;;;;29.46;47.58;98728.44;2083001;28;20567;-49
2023/08/17 03:35:25;;;;;;;1.27;1.23;;;;;;;29.45;47.85;98727.63;2082734;28;20423;-49
2023/08/17 03:36:27;;;;;;;1.58;1.48;;;;;;;29.45;47.81;98734.97;2084136;28;20195;-52
2023/08/17 03:37:28;;;;;;;1.80;1.52;;;;;;;29.44;47.87;98725.97;2082167;28;20107;-49
2023/08/17 03:38:30;;;;;;;1.42;1.33;;;;;;;29.45;47.79;98726.78;2080813;28;20616;-51
2023/08/17 03:39:31;;;;;;;1.50;1.40;;;;;;;29.44;47.76;98728.69;2082500;28;20061;-51
2023/08/17 03:40:32;;;;;;;1.52;1.42;;;;;;;29.45;47.73;98730.34;2084636;28;20051;-49
2023/08/17 03:41:36;;;;;;;1.45;1.35;;;;;;;29.45;47.63;98729.50;2085527;28;20056;-49
2023/08/17 03:42:38;;;;;;;1.58;1.48;;;;;;;29.44;48.01;98728.69;2084434;28;20124;-51
2023/08/17 03:43:39;;;;;;;1.55;1.45;;;;;;;29.45;47.75;98730.34;2085626;28;20511;-53
2023/08/17 03:44:41;;;;;;;1.42;1.33;;;;;;;29.43;47.91;98734.44;2082482;28;20212;-52
2023/08/17 03:45:42;;;;;;;1.63;1.50;;;;;;;29.45;47.73;98733.09;2084516;28;20075;-51
2023/08/17 03:46:43;;;;;;;1.42;1.33;;;;;;;29.44;47.75;98738.81;2085361;28;20511;-53
2023/08/17 03:47:45;;;;;;;1.60;1.50;;;;;;;29.44;47.80;98734.16;2083548;28;20200;-52
2023/08/17 03:48:46;;;;;;;1.35;1.25;;;;;;;29.44;47.75;98731.44;2084016;28;20063;-51
2023/08/17 03:49:48;;;;;;;3.38;1.50;;;;;;;29.44;47.80;98739.63;2085871;28;20073;-49
2023/08/17 03:50:51;;;;;;;1.98;1.45;;;;;;;29.45;47.87;98744.00;2085753;28;20414;-50
2023/08/17 03:51:53;;;;;;;1.67;1.58;;;;;;;29.44;47.81;98745.09;2082531;28;20059;-51
2023/08/17 03:52:54;;;;;;;1.60;1.50;;;;;;;29.43;47.87;98743.47;2082548;28;20053;-51
2023/08/17 03:53:56;;;;;;;2.00;1.70;;;;;;;29.43;47.88;98742.66;2084628;28;20190;-49
2023/08/17 03:54:57;;;;;;;2.00;1.90;;;;;;;29.43;47.54;98732.53;2084136;28;20045;-53
2023/08/17 03:55:59;;;;;;;2.15;1.35;;;;;;;29.44;47.36;98738.81;2078148;28;20564;-50
2023/08/17 03:57:01;;;;;;;1.45;1.35;;;;;;;29.44;47.69;98739.63;2076999;28;20077;-53
2023/08/17 03:58:03;;;;;;;1.50;1.40;;;;;;;29.41;47.57;98734.72;2073813;28;20439;-50
2023/08/17 03:59:04;;;;;;;1.42;1.33;;;;;;;29.42;47.54;98741.84;2076995;28;20132;-55
2023/08/17 04:00:07;;;;;;;1.33;1.23;;;;;;;29.43;47.58;98739.91;2076332;28;20052;-51
2023/08/17 04:01:08;;;;;;;1.05;1.05;;;;;;;29.42;47.58;98730.91;2075980;28;20416;-50
2023/08/17 04:02:10;;;;;;;1.30;1.20;;;;;;;29.42;47.85;98727.31;2073964;28;20113;-49
2023/08/17 04:03:11;;;;;;;2.00;1.80;;;;;;;29.41;47.90;98729.25;2077803;28;20045;-51
2023/08/17 04:04:13;;;;;;;1.60;1.50;;;;;;;29.42;47.77;98736.38;2075518;28;20049;-52
2023/08/17 04:05:14;;;;;;;1.20;1.10;;;;;;;29.41;47.69;98734.72;2075703;28;20084;-52
2023/08/17 04:06:15;;;;;;;1.35;1.25;;;;;;;29.42;47.83;98732.78;2074678;28;20599;-50
2023/08/17 04:07:21;;;;;;;1.85;1.70;;;;;;;29.42;47.64;98741.00;2077256;28;20053;-52
2023/08/17 04:08:23;;;;;;;1.58;1.48;;;;;;;29.42;47.87;98741.00;2076080;28;20274;-49
2023/08/17 04:09:24;;;;;;;1.60;1.50;;;;;;;29.42;47.64;98730.06;2075362;28;20060;-53
2023/08/17 04:10:25;;;;;;;1.30;1.20;;;;;;;29.42;47.67;98741.00;2074192;28;20105;-51
2023/08/17 04:11:27;;;;;;;1.50;1.40;;;;;;;29.41;47.82;98737.44;2073460;28;20072;-49
2023/08/17 04:12:29;;;;;;;1.00;0.98;;;;;;;29.41;47.68;98740.16;2066464;28;20534;-52
2023/08/17 04:13:31;;;;;;;1.73;1.60;;;;;;;29.41;47.75;98742.91;2072359;28;20045;-50
2023/08/17 04:14:31;;;;;;;1.40;1.27;;;;;;;29.41;47.49;98740.16;2075227;28;20510;-50
2023/08/17 04:15:33;;;;;;;1.55;1.45;;;;;;;29.41;47.62;98740.16;2072889;28;20048;-53
2023/08/17 04:16:34;;;;;;;1.60;1.50;;;;;;;29.41;47.74;98745.63;2074166;28;20061;-55
2023/08/17 04:17:36;;;;;;;1.52;1.27;;;;;;;29.42;47.78;98744.56;2075109;28;20045;-50
2023/08/17 04:18:37;;;;;;;1.38;1.27;;;;;;;29.41;47.59;98734.72;2076172;28;20042;-49
2023/08/17 04:19:39;;;;;;;1.40;1.30;;;;;;;29.42;47.73;98741.84;2076978;28;20576;-50
2023/08/17 04:20:40;;;;;;;1.52;1.20;;;;;;;29.40;47.51;98735.81;2077583;28;20130;-50
2023/08/17 04:21:41;;;;;;;1.33;1.23;;;;;;;29.40;47.55;98736.63;2086420;28;20060;-53
2023/08/17 04:22:42;;;;;;;1.90;1.80;;;;;;;29.39;47.85;98737.72;2083042;28;20041;-49
2023/08/17 04:23:44;;;;;;;1.80;1.70;;;;;;;29.40;47.76;98738.53;2082883;28;20132;-53
2023/08/17 04:24:45;;;;;;;1.23;1.13;;;;;;;29.40;47.65;98733.06;2083636;28;20072;-52
2023/08/17 04:25:47;;;;;;;1.45;1.35;;;;;;;29.39;47.64;98736.88;2085383;28;20041;-49
2023/08/17 04:26:48;;;;;;;1.40;1.30;;;;;;;29.40;47.60;98741.28;2082912;28;20522;-49
2023/08/17 04:27:52;;;;;;;1.85;1.75;;;;;;;29.40;47.76;98744.00;2082269;28;20366;-49
2023/08/17 04:28:52;;;;;;;1.30;1.20;;;;;;;29.38;47.89;98738.81;2086331;28;20091;-52
2023/08/17 04:29:54;;;;;;;1.40;1.30;;;;;;;29.38;47.85;98738.00;2077800;28;20049;-51
2023/08/17 04:30:55;;;;;;;1.65;1.55;;;;;;;29.39;47.67;98743.19;2083240;28;20056;-53
2023/08/17 04:31:57;;;;;;;1.70;1.40;;;;;;;29.41;47.77;98740.16;2084799;28;20128;-49
2023/08/17 04:32:58;;;;;;;1.77;1.50;;;;;;;29.39;47.86;98743.19;2084638;28;20064;-53
2023/08/17 04:34:00;;;;;;;2.67;1.73;;;;;;;29.39;47.57;98743.19;2084444;28;20056;-53
2023/08/17 04:35:01;;;;;;;2.05;1.60;;;;;;;29.40;47.64;98744.00;2083533;28;20056;-53
2023/08/17 04:36:03;;;;;;;1.60;1.50;;;;;;;29.39;47.77;98742.34;2085460;28;20045;-49
2023/08/17 04:37:03;;;;;;;1.60;1.50;;;;;;;29.39;47.64;98745.06;2084160;28;20550;-53
2023/08/17 04:38:05;;;;;;;1.60;1.50;;;;;;;29.39;47.70;98742.34;2085998;28;20333;-50
2023/08/17 04:39:06;;;;;;;1.45;1.33;;;;;;;29.39;47.72;98745.06;2084876;28;20049;-50
2023/08/17 04:40:09;;;;;;;1.67;1.58;;;;;;;29.40;47.96;98746.75;2084934;28;20530;-50
2023/08/17 04:41:10;;;;;;;1.13;1.10;;;;;;;29.38;47.83;98741.53;2083463;28;20037;-50
2023/08/17 04:42:12;;;;;;;1.52;1.42;;;;;;;29.39;47.79;98743.19;2083464;28;20060;-51
2023/08/17 04:43:14;;;;;;;2.40;2.20;;;;;;;29.40;47.75;98749.47;2084601;28;20044;-51
2023/08/17 04:44:16;;;;;;;2.22;1.50;;;;;;;29.39;47.65;98750.53;2085394;28;20038;-49
2023/08/17 04:45:17;;;;;;;1.85;1.70;;;;;;;29.39;47.71;98745.06;2085030;28;20476;-51
2023/08/17 04:46:19;;;;;;;1.58;1.48;;;;;;;29.39;47.72;98745.06;2085577;28;20045;-52
2023/08/17 04:47:20;;;;;;;1.58;1.48;;;;;;;29.39;47.92;98756.00;2083634;28;21584;-53
2023/08/17 04:48:21;;;;;;;2.42;1.40;;;;;;;29.39;47.44;98753.28;2085760;28;20538;-49
2023/08/17 04:49:22;;;;;;;1.70;1.60;;;;;;;29.39;47.69;98756.00;2085972;28;20053;-52
2023/08/17 04:50:24;;;;;;;1.45;1.20;;;;;;;29.39;47.83;98764.22;2087111;28;20053;-49
2023/08/17 04:51:25;;;;;;;1.77;1.67;;;;;;;29.38;47.44;98759.84;2086330;28;20075;-51